createdAt,value
2023-04-28T00:00:00.290Z,62.8
2023-04-28T00:05:00.414Z,63.6
2023-04-28T00:10:00.307Z,64.6
2023-04-28T00:15:00.249Z,63.1
2023-04-28T00:20:00.285Z,63.5
2023-04-28T00:25:00.293Z,63.2
2023-04-28T00:30:00.301Z,63.7
2023-04-28T00:35:00.267Z,64.3
2023-04-28T00:40:00.300Z,63.6
2023-04-28T00:45:00.286Z,63.7
2023-04-28T00:50:00.278Z,64.1
2023-04-28T00:55:00.255Z,63.0
2023-04-28T01:00:00.356Z,63.9
2023-04-28T01:05:00.243Z,64.0
2023-04-28T01:10:00.294Z,63.1
2023-04-28T01:15:00.285Z,64.1
2023-04-28T01:20:00.288Z,64.2
2023-04-28T01:25:00.264Z,64.4
2023-04-28T01:30:00.308Z,64.6
2023-04-28T01:35:00.383Z,63.7
2023-04-28T01:40:00.251Z,63.5
2023-04-28T01:45:00.299Z,64.5
2023-04-28T01:50:00.289Z,63.9
2023-04-28T01:55:00.294Z,64.1
2023-04-28T02:00:00.275Z,62.8
2023-04-28T02:05:00.340Z,63.0
2023-04-28T02:10:00.296Z,65.0
2023-04-28T02:15:00.237Z,65.4
2023-04-28T02:20:00.289Z,64.6
2023-04-28T02:25:00.299Z,64.6
2023-04-28T02:30:00.282Z,65.6
2023-04-28T02:35:00.238Z,64.6
2023-04-28T02:40:00.288Z,63.9
2023-04-28T02:45:00.278Z,64.9
2023-04-28T02:50:00.291Z,64.7
2023-04-28T02:55:00.310Z,64.9
2023-04-28T03:00:00.276Z,64.3
2023-04-28T03:05:00.307Z,64.9
2023-04-28T03:10:00.291Z,64.7
2023-04-28T03:15:00.260Z,64.4
2023-04-28T03:20:00.278Z,65.5
2023-04-28T03:25:00.230Z,65.3
2023-04-28T03:30:00.303Z,64.5
2023-04-28T03:35:00.239Z,64.6
2023-04-28T03:40:00.316Z,64.5
2023-04-28T03:45:00.284Z,64.7
2023-04-28T03:50:00.557Z,64.7
2023-04-28T03:55:00.238Z,65.4
2023-04-28T04:00:00.313Z,66.2
2023-04-28T04:05:00.533Z,66.3
2023-04-28T04:10:02.530Z,66.0
2023-04-28T04:15:00.333Z,65.0
2023-04-28T04:20:00.301Z,65.9
2023-04-28T04:25:00.266Z,65.3
2023-04-28T04:30:00.302Z,64.9
2023-04-28T04:35:00.257Z,65.6
2023-04-28T04:40:00.279Z,66.0
2023-04-28T04:45:00.307Z,65.9
2023-04-28T04:50:00.305Z,65.3
2023-04-28T04:55:00.248Z,64.4
2023-04-28T05:00:00.458Z,64.5
2023-04-28T05:05:12.265Z,64.2
2023-04-28T05:10:00.321Z,64.3
2023-04-28T05:15:00.644Z,63.3
2023-04-28T05:20:00.287Z,62.6
2023-04-28T05:25:00.258Z,62.2
2023-04-28T05:30:00.400Z,61.9
2023-04-28T05:35:00.233Z,61.4
2023-04-28T05:40:00.276Z,60.5
2023-04-28T05:45:00.295Z,60.3
2023-04-28T05:50:00.280Z,60.1
2023-04-28T05:55:00.250Z,59.0
2023-04-28T06:00:00.320Z,58.5
2023-04-28T06:05:00.569Z,57.8
2023-04-28T06:10:00.271Z,57.4
2023-04-28T06:15:00.316Z,57.0
2023-04-28T06:20:00.278Z,56.7
2023-04-28T06:25:00.303Z,55.9
2023-04-28T06:30:00.277Z,55.5
2023-04-28T06:35:00.299Z,54.7
2023-04-28T06:40:00.253Z,54.3
2023-04-28T06:45:00.304Z,52.6
2023-04-28T06:50:00.282Z,52.8
2023-04-28T06:55:00.288Z,51.6
2023-04-28T07:00:00.242Z,51.1
2023-04-28T07:05:00.303Z,50.4
2023-04-28T07:10:00.271Z,50.6
2023-04-28T07:15:00.282Z,50.0
2023-04-28T07:20:00.252Z,49.9
2023-04-28T07:25:00.352Z,49.8
2023-04-28T07:30:01.869Z,49.5
2023-04-28T07:35:00.296Z,49.4
2023-04-28T07:40:00.290Z,48.9
2023-04-28T07:45:00.323Z,48.6
2023-04-28T07:50:00.245Z,47.8
2023-04-28T07:55:00.354Z,46.8
2023-04-28T08:00:00.274Z,46.1
2023-04-28T08:05:00.501Z,45.8
2023-04-28T08:10:00.258Z,44.2
2023-04-28T08:15:00.299Z,43.8
2023-04-28T08:20:00.313Z,43.5
2023-04-28T08:25:00.230Z,43.4
2023-04-28T08:30:00.258Z,46.8
2023-04-28T08:35:00.276Z,46.0
2023-04-28T08:40:00.304Z,43.0
2023-04-28T08:45:00.230Z,43.5
2023-04-28T08:50:00.281Z,42.6
2023-04-28T08:55:00.287Z,42.5
2023-04-28T09:00:00.285Z,42.9
2023-04-28T09:05:00.388Z,42.8
2023-04-28T09:10:00.292Z,42.7
2023-04-28T09:15:00.276Z,42.8
2023-04-28T09:20:00.286Z,42.8
2023-04-28T09:25:00.233Z,42.5
2023-04-28T09:30:00.326Z,42.8
2023-04-28T09:35:00.241Z,42.1
2023-04-28T09:40:00.324Z,42.2
2023-04-28T09:45:00.280Z,42.3
2023-04-28T09:50:00.290Z,41.9
2023-04-28T09:55:00.279Z,41.6
2023-04-28T10:00:00.284Z,42.4
2023-04-28T10:05:00.715Z,42.0
2023-04-28T10:10:00.258Z,41.8
2023-04-28T10:15:00.364Z,42.2
2023-04-28T10:20:00.294Z,42.2
2023-04-28T10:25:00.285Z,42.5
2023-04-28T10:30:00.249Z,42.1
2023-04-28T10:35:00.553Z,41.4
2023-04-28T10:40:00.299Z,41.8
2023-04-28T10:45:00.300Z,41.5
2023-04-28T10:50:00.247Z,41.2
2023-04-28T10:55:03.183Z,41.5
2023-04-28T11:00:00.317Z,41.4
2023-04-28T11:05:00.480Z,41.2
2023-04-28T11:10:00.241Z,41.6
2023-04-28T11:15:00.290Z,41.6
2023-04-28T11:25:02.614Z,41.3
2023-04-28T11:30:00.318Z,41.2
2023-04-28T11:35:00.383Z,41.1
2023-04-28T11:40:00.362Z,41.5
2023-04-28T11:45:00.385Z,41.6
2023-04-28T11:50:00.335Z,41.3
2023-04-28T11:55:00.738Z,42.0
2023-04-28T12:00:00.333Z,41.7
2023-04-28T12:05:00.385Z,42.0
2023-04-28T12:10:00.350Z,41.9
2023-04-28T12:15:00.359Z,42.0
2023-04-28T12:20:00.311Z,41.9
2023-04-28T12:25:00.375Z,42.2
2023-04-28T12:30:00.370Z,42.2
2023-04-28T12:35:00.341Z,42.2
2023-04-28T12:40:00.389Z,42.4
2023-04-28T12:45:00.363Z,42.4
2023-04-28T12:50:00.367Z,42.5
2023-04-28T12:55:00.325Z,42.6
2023-04-28T13:00:00.390Z,42.9
2023-04-28T13:05:00.467Z,42.7
2023-04-28T13:10:00.376Z,42.6
2023-04-28T13:15:00.319Z,42.5
2023-04-28T13:20:00.403Z,42.6
2023-04-28T13:25:00.348Z,42.6
2023-04-28T13:30:00.366Z,42.7
2023-04-28T13:35:00.363Z,43.0
2023-04-28T13:40:00.370Z,43.6
2023-04-28T13:45:00.326Z,43.7
2023-04-28T13:50:00.405Z,43.5
2023-04-28T13:55:00.365Z,44.2
2023-04-28T14:00:00.374Z,44.1
2023-04-28T14:05:00.320Z,44.4
2023-04-28T14:10:00.365Z,44.5
2023-04-28T14:15:00.322Z,44.5
2023-04-28T14:20:00.363Z,45.0
2023-04-28T14:25:00.374Z,45.2
2023-04-28T14:30:00.469Z,45.6
2023-04-28T14:35:00.320Z,45.7
2023-04-28T14:40:00.419Z,46.3
2023-04-28T14:45:00.373Z,46.6
2023-04-28T14:50:00.447Z,46.6
2023-04-28T14:55:00.340Z,47.1
2023-04-28T15:00:00.412Z,48.1
2023-04-28T15:05:00.586Z,47.5
2023-04-28T15:10:00.378Z,47.5
2023-04-28T15:15:00.384Z,47.8
2023-04-28T15:20:00.385Z,47.7
2023-04-28T15:25:00.368Z,47.5
2023-04-28T15:30:00.368Z,47.9
2023-04-28T15:35:00.396Z,49.3
2023-04-28T15:40:00.347Z,49.2
2023-04-28T15:45:00.370Z,49.6
2023-04-28T15:50:00.356Z,59.4
2023-04-28T15:55:00.367Z,49.8
2023-04-28T16:00:00.356Z,48.6
2023-04-28T16:05:00.345Z,48.2
2023-04-28T16:10:00.357Z,48.3
2023-04-28T16:15:00.366Z,47.9
2023-04-28T16:20:00.362Z,48.1
2023-04-28T16:25:00.483Z,47.9
2023-04-28T16:30:00.407Z,48.2
2023-04-28T16:35:00.339Z,48.5
2023-04-28T16:40:00.374Z,49.1
2023-04-28T16:45:00.357Z,50.0
2023-04-28T16:50:00.352Z,52.8
2023-04-28T16:55:00.497Z,52.7
2023-04-28T17:00:00.369Z,54.2
2023-04-28T17:05:00.389Z,54.1
2023-04-28T17:10:00.391Z,54.8
2023-04-28T17:15:00.316Z,55.8
2023-04-28T17:20:00.392Z,55.7
2023-04-28T17:25:00.375Z,56.9
2023-04-28T17:30:00.368Z,57.8
2023-04-28T17:35:00.337Z,58.6
2023-04-28T17:40:00.377Z,59.2
2023-04-28T17:45:00.331Z,59.2
2023-04-28T17:50:00.362Z,60.1
2023-04-28T17:55:00.364Z,60.2
2023-04-28T18:00:00.364Z,60.0
2023-04-28T18:05:00.467Z,60.7
2023-04-28T18:10:00.356Z,62.7
2023-04-28T18:15:00.382Z,65.0
2023-04-28T18:20:00.373Z,64.9
2023-04-28T18:25:00.320Z,65.2
2023-04-28T18:30:00.405Z,68.6
2023-04-28T18:35:00.321Z,67.8
2023-04-28T18:40:00.358Z,69.0
2023-04-28T18:45:00.457Z,70.7
2023-04-28T18:50:00.358Z,71.2
2023-04-28T18:55:00.339Z,72.2
2023-04-28T19:00:00.386Z,73.6
2023-04-28T19:05:00.503Z,73.8
2023-04-28T19:10:00.369Z,72.8
2023-04-28T19:15:00.369Z,72.2
2023-04-28T19:20:00.423Z,72.7
2023-04-28T19:25:00.324Z,72.3
2023-04-28T19:30:00.400Z,73.1
2023-04-28T19:35:00.394Z,73.0
2023-04-28T19:40:00.318Z,73.4
2023-04-28T19:45:00.366Z,73.5
2023-04-28T19:50:00.377Z,73.8
2023-04-28T19:55:00.355Z,75.0
2023-04-28T20:00:00.332Z,74.7
2023-04-28T20:05:00.378Z,74.5
2023-04-28T20:10:00.360Z,76.0
2023-04-28T20:15:00.399Z,75.7
2023-04-28T20:20:00.324Z,74.9
2023-04-28T20:25:00.362Z,75.8
2023-04-28T20:30:00.365Z,76.0
2023-04-28T20:35:00.323Z,77.3
2023-04-28T20:40:00.380Z,75.8
2023-04-28T20:45:00.425Z,76.8
2023-04-28T20:50:00.402Z,77.1
2023-04-28T20:55:00.339Z,77.6
2023-04-28T21:00:00.370Z,76.2
2023-04-28T21:05:00.357Z,76.8
2023-04-28T21:10:00.380Z,77.0
2023-04-28T21:15:00.341Z,76.4
2023-04-28T21:20:00.400Z,76.7
2023-04-28T21:25:00.332Z,76.8
2023-04-28T21:30:00.360Z,76.9
2023-04-28T21:35:00.369Z,77.3
2023-04-28T21:40:00.367Z,76.9
2023-04-28T21:45:00.328Z,77.1
2023-04-28T21:50:00.382Z,76.1
2023-04-28T21:55:00.365Z,76.7
2023-04-28T22:00:00.334Z,77.5
2023-04-28T22:05:00.370Z,78.4
2023-04-28T22:10:00.366Z,77.7
2023-04-28T22:15:00.368Z,77.1
2023-04-28T22:20:00.337Z,78.3
2023-04-28T22:25:00.393Z,77.1
2023-04-28T22:30:00.329Z,76.5
2023-04-28T22:35:00.361Z,76.1
2023-04-28T22:40:00.405Z,76.8
2023-04-28T22:45:02.513Z,77.9
2023-04-28T22:50:00.373Z,77.5
2023-04-28T22:55:00.378Z,77.4
2023-04-28T23:00:00.327Z,76.5
2023-04-28T23:05:00.367Z,75.2
2023-04-28T23:10:00.375Z,75.8
2023-04-28T23:15:00.385Z,76.2
2023-04-28T23:20:00.333Z,77.2
2023-04-28T23:25:00.361Z,77.3
2023-04-28T23:30:00.380Z,78.9
2023-04-28T23:35:00.371Z,77.6
2023-04-28T23:40:00.325Z,76.9
2023-04-28T23:45:00.381Z,77.4
2023-04-28T23:50:00.359Z,77.8
2023-04-28T23:55:00.381Z,77.2
